Terminal Aerodrome Forecast
Issued by NWS

Home | Current Version | Previous Version | Text Only | Print | Product List | Glossary On
Versions: 1 2 3 4 5 6 7 8 9 10 11 12 13 14 15
000
FTAK31 PAJN 251734
TAFAGY
TAF
PAGY 251734Z 2518/2618 22004KT P6SM SCT045 OVC060
     FM252100 21008KT P6SM VCSH SCT025 OVC050
     FM260400 VRB04KT P6SM VCSH SCT015 OVC040
     FM261000 03009KT P6SM SCT025 OVC050
      AMD LTD TO CLD VIS AND WIND=

USA.gov is the U.S. government's official web portal to all federal, state and local government web resources and services.